sensor_id;sensor_type;location;lat;lon;timestamp;P1;durP1;ratioP1;P2;durP2;ratioP2
69748;SDS011;57019;52.354;6.584;2022-09-21T00:00:33;6.87;;;1.43;;
69748;SDS011;57019;52.354;6.584;2022-09-21T00:02:58;5.60;;;1.33;;
69748;SDS011;57019;52.354;6.584;2022-09-21T00:05:24;5.33;;;1.20;;
69748;SDS011;57019;52.354;6.584;2022-09-21T00:07:50;5.35;;;1.10;;
69748;SDS011;57019;52.354;6.584;2022-09-21T00:10:16;5.60;;;1.40;;
69748;SDS011;57019;52.354;6.584;2022-09-21T00:12:44;6.07;;;1.35;;
69748;SDS011;57019;52.354;6.584;2022-09-21T00:15:11;4.18;;;1.10;;
69748;SDS011;57019;52.354;6.584;2022-09-21T00:17:37;5.50;;;1.30;;
69748;SDS011;57019;52.354;6.584;2022-09-21T00:20:03;4.75;;;1.27;;
69748;SDS011;57019;52.354;6.584;2022-09-21T00:22:30;4.85;;;1.02;;
69748;SDS011;57019;52.354;6.584;2022-09-21T00:24:59;4.63;;;1.10;;
69748;SDS011;57019;52.354;6.584;2022-09-21T00:27:28;4.97;;;1.23;;
69748;SDS011;57019;52.354;6.584;2022-09-21T00:29:55;4.32;;;1.10;;
69748;SDS011;57019;52.354;6.584;2022-09-21T00:32:21;4.57;;;1.10;;
69748;SDS011;57019;52.354;6.584;2022-09-21T00:34:49;5.65;;;1.05;;
69748;SDS011;57019;52.354;6.584;2022-09-21T00:37:15;4.10;;;0.93;;
69748;SDS011;57019;52.354;6.584;2022-09-21T00:39:41;5.38;;;1.33;;
69748;SDS011;57019;52.354;6.584;2022-09-21T00:42:09;5.75;;;1.23;;
69748;SDS011;57019;52.354;6.584;2022-09-21T00:44:34;6.00;;;1.27;;
69748;SDS011;57019;52.354;6.584;2022-09-21T00:47:06;4.40;;;1.10;;
69748;SDS011;57019;52.354;6.584;2022-09-21T00:49:35;4.72;;;1.10;;
69748;SDS011;57019;52.354;6.584;2022-09-21T00:52:02;4.38;;;1.10;;
69748;SDS011;57019;52.354;6.584;2022-09-21T00:54:31;6.15;;;1.00;;
69748;SDS011;57019;52.354;6.584;2022-09-21T00:57:10;4.77;;;1.10;;
69748;SDS011;57019;52.354;6.584;2022-09-21T00:59:36;4.75;;;1.25;;
69748;SDS011;57019;52.354;6.584;2022-09-21T01:02:04;5.00;;;1.20;;
69748;SDS011;57019;52.354;6.584;2022-09-21T01:04:30;4.47;;;1.10;;
69748;SDS011;57019;52.354;6.584;2022-09-21T01:06:56;5.50;;;1.10;;
69748;SDS011;57019;52.354;6.584;2022-09-21T01:09:28;4.77;;;1.20;;
69748;SDS011;57019;52.354;6.584;2022-09-21T01:14:56;3.90;;;1.10;;
69748;SDS011;57019;52.354;6.584;2022-09-21T01:17:45;4.20;;;1.00;;
69748;SDS011;57019;52.354;6.584;2022-09-21T01:31:19;6.10;;;1.10;;
69748;SDS011;57019;52.354;6.584;2022-09-21T01:33:53;4.85;;;1.20;;
69748;SDS011;57019;52.354;6.584;2022-09-21T01:36:23;3.78;;;1.10;;
69748;SDS011;57019;52.354;6.584;2022-09-21T01:38:53;4.30;;;1.15;;
69748;SDS011;57019;52.354;6.584;2022-09-21T01:41:21;5.20;;;1.10;;
69748;SDS011;57019;52.354;6.584;2022-09-21T01:43:54;4.23;;;1.10;;
69748;SDS011;57019;52.354;6.584;2022-09-21T01:46:27;5.25;;;1.15;;
69748;SDS011;57019;52.354;6.584;2022-09-21T01:48:57;5.10;;;1.20;;
69748;SDS011;57019;52.354;6.584;2022-09-21T01:51:28;4.55;;;1.15;;
69748;SDS011;57019;52.354;6.584;2022-09-21T01:54:02;4.38;;;1.00;;
69748;SDS011;57019;52.354;6.584;2022-09-21T01:56:38;6.07;;;1.20;;
69748;SDS011;57019;52.354;6.584;2022-09-21T01:59:12;4.10;;;1.00;;
69748;SDS011;57019;52.354;6.584;2022-09-21T02:01:58;4.10;;;1.17;;
69748;SDS011;57019;52.354;6.584;2022-09-21T02:04:28;4.93;;;1.10;;
69748;SDS011;57019;52.354;6.584;2022-09-21T02:06:54;4.23;;;1.07;;
69748;SDS011;57019;52.354;6.584;2022-09-21T02:09:20;3.87;;;1.20;;
69748;SDS011;57019;52.354;6.584;2022-09-21T02:11:47;4.10;;;1.05;;
69748;SDS011;57019;52.354;6.584;2022-09-21T02:14:17;3.87;;;1.10;;
69748;SDS011;57019;52.354;6.584;2022-09-21T02:19:23;4.30;;;1.20;;
69748;SDS011;57019;52.354;6.584;2022-09-21T02:24:38;3.90;;;1.00;;
69748;SDS011;57019;52.354;6.584;2022-09-21T02:30:16;4.60;;;1.10;;
69748;SDS011;57019;52.354;6.584;2022-09-21T02:32:48;4.35;;;1.10;;
69748;SDS011;57019;52.354;6.584;2022-09-21T02:38:20;5.70;;;1.10;;
69748;SDS011;57019;52.354;6.584;2022-09-21T02:41:01;4.90;;;1.10;;
69748;SDS011;57019;52.354;6.584;2022-09-21T02:43:39;4.75;;;1.00;;
69748;SDS011;57019;52.354;6.584;2022-09-21T02:46:17;4.22;;;1.10;;
69748;SDS011;57019;52.354;6.584;2022-09-21T02:48:49;5.32;;;1.15;;
69748;SDS011;57019;52.354;6.584;2022-09-21T02:51:21;4.67;;;1.20;;
69748;SDS011;57019;52.354;6.584;2022-09-21T02:54:01;4.10;;;1.30;;
69748;SDS011;57019;52.354;6.584;2022-09-21T02:56:30;4.05;;;1.00;;
69748;SDS011;57019;52.354;6.584;2022-09-21T02:58:56;4.90;;;1.20;;
69748;SDS011;57019;52.354;6.584;2022-09-21T03:01:25;4.18;;;1.10;;
69748;SDS011;57019;52.354;6.584;2022-09-21T03:03:51;4.43;;;1.10;;
69748;SDS011;57019;52.354;6.584;2022-09-21T03:06:16;4.00;;;1.03;;
69748;SDS011;57019;52.354;6.584;2022-09-21T03:08:42;4.05;;;0.98;;
69748;SDS011;57019;52.354;6.584;2022-09-21T03:11:07;4.70;;;1.10;;
69748;SDS011;57019;52.354;6.584;2022-09-21T03:13:34;4.55;;;1.10;;
69748;SDS011;57019;52.354;6.584;2022-09-21T03:16:01;4.33;;;1.10;;
69748;SDS011;57019;52.354;6.584;2022-09-21T03:18:29;4.17;;;1.10;;
69748;SDS011;57019;52.354;6.584;2022-09-21T03:20:55;3.83;;;1.10;;
69748;SDS011;57019;52.354;6.584;2022-09-21T03:23:21;4.05;;;1.20;;
69748;SDS011;57019;52.354;6.584;2022-09-21T03:25:46;4.63;;;1.27;;
69748;SDS011;57019;52.354;6.584;2022-09-21T03:28:12;4.67;;;1.20;;
69748;SDS011;57019;52.354;6.584;2022-09-21T03:30:39;5.18;;;1.10;;
69748;SDS011;57019;52.354;6.584;2022-09-21T03:33:05;3.70;;;1.05;;
69748;SDS011;57019;52.354;6.584;2022-09-21T03:35:30;3.87;;;1.07;;
69748;SDS011;57019;52.354;6.584;2022-09-21T03:37:57;4.20;;;1.08;;
69748;SDS011;57019;52.354;6.584;2022-09-21T03:40:24;3.72;;;0.90;;
69748;SDS011;57019;52.354;6.584;2022-09-21T03:42:50;4.95;;;1.20;;
69748;SDS011;57019;52.354;6.584;2022-09-21T03:45:16;4.50;;;1.27;;
69748;SDS011;57019;52.354;6.584;2022-09-21T03:47:41;4.70;;;1.20;;
69748;SDS011;57019;52.354;6.584;2022-09-21T03:50:07;4.23;;;1.17;;
69748;SDS011;57019;52.354;6.584;2022-09-21T03:52:34;4.50;;;1.13;;
69748;SDS011;57019;52.354;6.584;2022-09-21T03:55:01;4.50;;;1.20;;
69748;SDS011;57019;52.354;6.584;2022-09-21T03:57:31;4.32;;;1.00;;
69748;SDS011;57019;52.354;6.584;2022-09-21T03:59:58;3.97;;;1.10;;
69748;SDS011;57019;52.354;6.584;2022-09-21T04:02:23;3.37;;;0.90;;
69748;SDS011;57019;52.354;6.584;2022-09-21T04:04:49;3.83;;;1.00;;
69748;SDS011;57019;52.354;6.584;2022-09-21T04:07:14;4.80;;;1.27;;
69748;SDS011;57019;52.354;6.584;2022-09-21T04:09:40;3.75;;;1.00;;
69748;SDS011;57019;52.354;6.584;2022-09-21T04:12:06;5.20;;;1.07;;
69748;SDS011;57019;52.354;6.584;2022-09-21T04:14:31;4.90;;;1.20;;
69748;SDS011;57019;52.354;6.584;2022-09-21T04:16:57;4.23;;;1.20;;
69748;SDS011;57019;52.354;6.584;2022-09-21T04:19:23;4.73;;;1.10;;
69748;SDS011;57019;52.354;6.584;2022-09-21T04:21:48;4.60;;;1.20;;
69748;SDS011;57019;52.354;6.584;2022-09-21T04:24:15;5.82;;;1.20;;
69748;SDS011;57019;52.354;6.584;2022-09-21T04:26:43;5.25;;;1.20;;
69748;SDS011;57019;52.354;6.584;2022-09-21T04:29:10;4.57;;;1.00;;
69748;SDS011;57019;52.354;6.584;2022-09-21T04:31:36;6.72;;;1.30;;
69748;SDS011;57019;52.354;6.584;2022-09-21T04:34:02;4.67;;;1.20;;
69748;SDS011;57019;52.354;6.584;2022-09-21T04:36:27;5.87;;;1.10;;
69748;SDS011;57019;52.354;6.584;2022-09-21T04:38:53;4.78;;;1.17;;
69748;SDS011;57019;52.354;6.584;2022-09-21T04:41:19;6.55;;;1.30;;
69748;SDS011;57019;52.354;6.584;2022-09-21T04:43:45;6.40;;;1.13;;
69748;SDS011;57019;52.354;6.584;2022-09-21T04:46:12;4.60;;;1.10;;
69748;SDS011;57019;52.354;6.584;2022-09-21T04:48:39;11.75;;;1.50;;
69748;SDS011;57019;52.354;6.584;2022-09-21T04:51:05;5.17;;;1.20;;
69748;SDS011;57019;52.354;6.584;2022-09-21T04:53:35;5.68;;;1.40;;
69748;SDS011;57019;52.354;6.584;2022-09-21T04:56:02;6.00;;;1.50;;
69748;SDS011;57019;52.354;6.584;2022-09-21T04:58:29;6.47;;;1.40;;
69748;SDS011;57019;52.354;6.584;2022-09-21T05:00:55;5.27;;;1.30;;
69748;SDS011;57019;52.354;6.584;2022-09-21T05:03:20;5.37;;;1.40;;
69748;SDS011;57019;52.354;6.584;2022-09-21T05:05:50;5.40;;;1.30;;
69748;SDS011;57019;52.354;6.584;2022-09-21T05:08:17;7.82;;;1.50;;
69748;SDS011;57019;52.354;6.584;2022-09-21T05:11:07;8.23;;;1.45;;
69748;SDS011;57019;52.354;6.584;2022-09-21T05:13:36;6.57;;;1.30;;
69748;SDS011;57019;52.354;6.584;2022-09-21T05:16:01;6.93;;;1.43;;
69748;SDS011;57019;52.354;6.584;2022-09-21T05:18:26;6.10;;;1.30;;
69748;SDS011;57019;52.354;6.584;2022-09-21T05:20:53;6.60;;;1.67;;
69748;SDS011;57019;52.354;6.584;2022-09-21T05:23:19;9.00;;;1.90;;
69748;SDS011;57019;52.354;6.584;2022-09-21T05:25:45;6.27;;;1.30;;
69748;SDS011;57019;52.354;6.584;2022-09-21T05:28:10;4.97;;;1.37;;
69748;SDS011;57019;52.354;6.584;2022-09-21T05:30:36;5.57;;;1.30;;
69748;SDS011;57019;52.354;6.584;2022-09-21T05:33:02;5.60;;;1.43;;
69748;SDS011;57019;52.354;6.584;2022-09-21T05:40:30;8.00;;;1.35;;
69748;SDS011;57019;52.354;6.584;2022-09-21T05:42:56;5.93;;;1.47;;
69748;SDS011;57019;52.354;6.584;2022-09-21T05:45:22;5.32;;;1.60;;
69748;SDS011;57019;52.354;6.584;2022-09-21T05:48:10;5.33;;;1.60;;
69748;SDS011;57019;52.354;6.584;2022-09-21T05:50:42;6.30;;;1.50;;
69748;SDS011;57019;52.354;6.584;2022-09-21T05:55:42;7.83;;;2.13;;
69748;SDS011;57019;52.354;6.584;2022-09-21T05:59:16;6.95;;;1.80;;
69748;SDS011;57019;52.354;6.584;2022-09-21T06:04:02;6.13;;;1.80;;
69748;SDS011;57019;52.354;6.584;2022-09-21T06:06:28;6.20;;;1.60;;
69748;SDS011;57019;52.354;6.584;2022-09-21T06:08:53;5.88;;;1.55;;
69748;SDS011;57019;52.354;6.584;2022-09-21T06:11:19;7.50;;;2.10;;
69748;SDS011;57019;52.354;6.584;2022-09-21T06:13:45;6.55;;;1.85;;
69748;SDS011;57019;52.354;6.584;2022-09-21T06:16:11;9.37;;;1.70;;
69748;SDS011;57019;52.354;6.584;2022-09-21T06:18:36;5.57;;;1.63;;
69748;SDS011;57019;52.354;6.584;2022-09-21T06:21:03;5.30;;;1.50;;
69748;SDS011;57019;52.354;6.584;2022-09-21T06:23:29;8.87;;;2.37;;
69748;SDS011;57019;52.354;6.584;2022-09-21T06:25:54;6.15;;;1.70;;
69748;SDS011;57019;52.354;6.584;2022-09-21T06:28:20;5.30;;;1.40;;
69748;SDS011;57019;52.354;6.584;2022-09-21T06:30:54;7.40;;;1.50;;
69748;SDS011;57019;52.354;6.584;2022-09-21T06:33:21;5.22;;;1.38;;
69748;SDS011;57019;52.354;6.584;2022-09-21T06:38:17;6.90;;;1.40;;
69748;SDS011;57019;52.354;6.584;2022-09-21T06:40:43;10.88;;;2.00;;
69748;SDS011;57019;52.354;6.584;2022-09-21T06:43:08;8.17;;;1.90;;
69748;SDS011;57019;52.354;6.584;2022-09-21T06:45:33;7.73;;;2.10;;
69748;SDS011;57019;52.354;6.584;2022-09-21T06:47:59;9.90;;;2.03;;
69748;SDS011;57019;52.354;6.584;2022-09-21T06:50:24;10.30;;;2.17;;
69748;SDS011;57019;52.354;6.584;2022-09-21T06:52:50;6.70;;;1.70;;
69748;SDS011;57019;52.354;6.584;2022-09-21T06:55:15;7.90;;;2.03;;
69748;SDS011;57019;52.354;6.584;2022-09-21T06:57:41;8.90;;;2.10;;
69748;SDS011;57019;52.354;6.584;2022-09-21T07:00:08;7.63;;;2.10;;
69748;SDS011;57019;52.354;6.584;2022-09-21T07:02:35;8.30;;;1.83;;
69748;SDS011;57019;52.354;6.584;2022-09-21T07:05:00;7.77;;;1.90;;
69748;SDS011;57019;52.354;6.584;2022-09-21T07:07:29;8.93;;;2.50;;
69748;SDS011;57019;52.354;6.584;2022-09-21T07:09:55;9.88;;;2.20;;
69748;SDS011;57019;52.354;6.584;2022-09-21T07:12:23;8.73;;;2.10;;
69748;SDS011;57019;52.354;6.584;2022-09-21T07:14:49;12.18;;;2.33;;
69748;SDS011;57019;52.354;6.584;2022-09-21T07:17:14;15.47;;;2.10;;
69748;SDS011;57019;52.354;6.584;2022-09-21T07:19:40;9.30;;;2.20;;
69748;SDS011;57019;52.354;6.584;2022-09-21T07:22:05;8.60;;;2.20;;
69748;SDS011;57019;52.354;6.584;2022-09-21T07:24:31;7.15;;;2.00;;
69748;SDS011;57019;52.354;6.584;2022-09-21T07:26:57;11.63;;;2.53;;
69748;SDS011;57019;52.354;6.584;2022-09-21T07:29:23;10.63;;;2.10;;
69748;SDS011;57019;52.354;6.584;2022-09-21T07:31:48;9.35;;;2.10;;
69748;SDS011;57019;52.354;6.584;2022-09-21T07:34:14;9.13;;;2.40;;
69748;SDS011;57019;52.354;6.584;2022-09-21T07:36:39;8.97;;;2.10;;
69748;SDS011;57019;52.354;6.584;2022-09-21T07:39:05;11.73;;;2.20;;
69748;SDS011;57019;52.354;6.584;2022-09-21T07:41:33;8.93;;;1.77;;
69748;SDS011;57019;52.354;6.584;2022-09-21T07:43:59;7.60;;;1.95;;
69748;SDS011;57019;52.354;6.584;2022-09-21T07:46:24;8.57;;;1.80;;
69748;SDS011;57019;52.354;6.584;2022-09-21T07:48:52;9.73;;;1.93;;
69748;SDS011;57019;52.354;6.584;2022-09-21T07:51:18;9.15;;;1.85;;
69748;SDS011;57019;52.354;6.584;2022-09-21T07:53:44;7.60;;;1.80;;
69748;SDS011;57019;52.354;6.584;2022-09-21T07:56:13;7.78;;;2.20;;
69748;SDS011;57019;52.354;6.584;2022-09-21T07:58:44;5.50;;;1.70;;
69748;SDS011;57019;52.354;6.584;2022-09-21T08:01:28;7.65;;;2.17;;
69748;SDS011;57019;52.354;6.584;2022-09-21T08:03:55;5.45;;;1.50;;
69748;SDS011;57019;52.354;6.584;2022-09-21T08:06:21;7.90;;;1.75;;
69748;SDS011;57019;52.354;6.584;2022-09-21T08:08:48;7.68;;;1.95;;
69748;SDS011;57019;52.354;6.584;2022-09-21T08:11:15;8.00;;;1.70;;
69748;SDS011;57019;52.354;6.584;2022-09-21T08:13:44;8.57;;;1.60;;
69748;SDS011;57019;52.354;6.584;2022-09-21T08:16:09;8.25;;;1.73;;
69748;SDS011;57019;52.354;6.584;2022-09-21T08:18:36;5.07;;;1.40;;
69748;SDS011;57019;52.354;6.584;2022-09-21T08:21:03;6.68;;;1.73;;
69748;SDS011;57019;52.354;6.584;2022-09-21T08:23:28;6.43;;;1.40;;
69748;SDS011;57019;52.354;6.584;2022-09-21T08:25:57;6.33;;;1.80;;
69748;SDS011;57019;52.354;6.584;2022-09-21T08:28:27;6.90;;;1.40;;
69748;SDS011;57019;52.354;6.584;2022-09-21T08:30:57;6.53;;;1.55;;
69748;SDS011;57019;52.354;6.584;2022-09-21T08:33:26;8.05;;;1.60;;
69748;SDS011;57019;52.354;6.584;2022-09-21T08:35:56;7.63;;;1.80;;
69748;SDS011;57019;52.354;6.584;2022-09-21T08:38:23;6.93;;;1.48;;
69748;SDS011;57019;52.354;6.584;2022-09-21T08:40:49;5.57;;;1.40;;
69748;SDS011;57019;52.354;6.584;2022-09-21T08:43:28;6.57;;;1.30;;
69748;SDS011;57019;52.354;6.584;2022-09-21T08:45:59;7.43;;;1.73;;
69748;SDS011;57019;52.354;6.584;2022-09-21T08:48:36;6.47;;;1.40;;
69748;SDS011;57019;52.354;6.584;2022-09-21T08:51:10;6.85;;;1.58;;
69748;SDS011;57019;52.354;6.584;2022-09-21T08:54:18;6.65;;;1.50;;
69748;SDS011;57019;52.354;6.584;2022-09-21T08:56:51;6.05;;;1.50;;
69748;SDS011;57019;52.354;6.584;2022-09-21T08:59:17;5.50;;;1.50;;
69748;SDS011;57019;52.354;6.584;2022-09-21T09:01:52;7.43;;;1.48;;
69748;SDS011;57019;52.354;6.584;2022-09-21T09:04:25;5.30;;;1.20;;
69748;SDS011;57019;52.354;6.584;2022-09-21T09:17:26;6.13;;;1.35;;
69748;SDS011;57019;52.354;6.584;2022-09-21T09:20:23;6.57;;;1.40;;
69748;SDS011;57019;52.354;6.584;2022-09-21T09:25:20;5.80;;;1.40;;
69748;SDS011;57019;52.354;6.584;2022-09-21T09:27:49;5.25;;;1.38;;
69748;SDS011;57019;52.354;6.584;2022-09-21T09:32:57;4.87;;;1.20;;
69748;SDS011;57019;52.354;6.584;2022-09-21T09:38:14;5.45;;;1.40;;
69748;SDS011;57019;52.354;6.584;2022-09-21T09:43:40;5.18;;;1.10;;
69748;SDS011;57019;52.354;6.584;2022-09-21T09:49:20;6.30;;;1.20;;
69748;SDS011;57019;52.354;6.584;2022-09-21T09:52:02;5.00;;;1.25;;
69748;SDS011;57019;52.354;6.584;2022-09-21T09:54:33;5.35;;;1.13;;
69748;SDS011;57019;52.354;6.584;2022-09-21T09:57:00;5.40;;;1.10;;
69748;SDS011;57019;52.354;6.584;2022-09-21T10:04:55;4.63;;;1.30;;
69748;SDS011;57019;52.354;6.584;2022-09-21T10:10:30;6.68;;;1.30;;
69748;SDS011;57019;52.354;6.584;2022-09-21T10:13:01;4.67;;;1.00;;
69748;SDS011;57019;52.354;6.584;2022-09-21T10:15:50;5.78;;;1.10;;
69748;SDS011;57019;52.354;6.584;2022-09-21T10:18:20;4.32;;;1.02;;
69748;SDS011;57019;52.354;6.584;2022-09-21T10:21:01;5.00;;;1.10;;
69748;SDS011;57019;52.354;6.584;2022-09-21T10:23:30;4.78;;;0.95;;
69748;SDS011;57019;52.354;6.584;2022-09-21T10:26:01;5.37;;;0.97;;
69748;SDS011;57019;52.354;6.584;2022-09-21T10:28:27;5.82;;;1.00;;
69748;SDS011;57019;52.354;6.584;2022-09-21T10:31:27;6.22;;;1.33;;
69748;SDS011;57019;52.354;6.584;2022-09-21T10:34:23;5.03;;;1.30;;
69748;SDS011;57019;52.354;6.584;2022-09-21T10:36:52;6.20;;;1.10;;
69748;SDS011;57019;52.354;6.584;2022-09-21T10:39:27;5.20;;;1.20;;
69748;SDS011;57019;52.354;6.584;2022-09-21T10:44:22;3.95;;;0.90;;
69748;SDS011;57019;52.354;6.584;2022-09-21T10:46:52;4.93;;;1.02;;
69748;SDS011;57019;52.354;6.584;2022-09-21T10:49:22;5.75;;;1.20;;
69748;SDS011;57019;52.354;6.584;2022-09-21T10:51:50;4.57;;;1.00;;
69748;SDS011;57019;52.354;6.584;2022-09-21T10:54:27;4.97;;;1.00;;
69748;SDS011;57019;52.354;6.584;2022-09-21T10:57:00;5.47;;;1.30;;
69748;SDS011;57019;52.354;6.584;2022-09-21T10:59:31;5.00;;;1.23;;
69748;SDS011;57019;52.354;6.584;2022-09-21T11:01:59;4.38;;;0.95;;
69748;SDS011;57019;52.354;6.584;2022-09-21T11:07:14;5.80;;;1.10;;
69748;SDS011;57019;52.354;6.584;2022-09-21T11:12:28;6.57;;;1.20;;
69748;SDS011;57019;52.354;6.584;2022-09-21T11:17:48;3.53;;;0.80;;
69748;SDS011;57019;52.354;6.584;2022-09-21T11:26:06;5.85;;;1.42;;
69748;SDS011;57019;52.354;6.584;2022-09-21T11:31:40;5.77;;;1.43;;
69748;SDS011;57019;52.354;6.584;2022-09-21T11:44:51;6.72;;;1.10;;
69748;SDS011;57019;52.354;6.584;2022-09-21T11:47:38;6.22;;;1.10;;
69748;SDS011;57019;52.354;6.584;2022-09-21T11:50:19;5.00;;;1.00;;
69748;SDS011;57019;52.354;6.584;2022-09-21T12:09:28;3.23;;;0.80;;
69748;SDS011;57019;52.354;6.584;2022-09-21T12:14:50;6.28;;;1.05;;
69748;SDS011;57019;52.354;6.584;2022-09-21T12:23:16;4.03;;;1.00;;
69748;SDS011;57019;52.354;6.584;2022-09-21T12:25:51;3.75;;;0.93;;
69748;SDS011;57019;52.354;6.584;2022-09-21T12:28:29;5.82;;;1.45;;
69748;SDS011;57019;52.354;6.584;2022-09-21T12:31:11;3.83;;;0.80;;
69748;SDS011;57019;52.354;6.584;2022-09-21T12:33:45;4.97;;;1.13;;
69748;SDS011;57019;52.354;6.584;2022-09-21T12:36:27;4.20;;;0.90;;
69748;SDS011;57019;52.354;6.584;2022-09-21T12:47:02;3.05;;;0.80;;
69748;SDS011;57019;52.354;6.584;2022-09-21T12:49:40;6.57;;;1.17;;
69748;SDS011;57019;52.354;6.584;2022-09-21T12:52:09;5.32;;;0.90;;
69748;SDS011;57019;52.354;6.584;2022-09-21T13:00:20;5.25;;;0.80;;
69748;SDS011;57019;52.354;6.584;2022-09-21T13:02:57;3.90;;;0.90;;
69748;SDS011;57019;52.354;6.584;2022-09-21T13:06:13;3.85;;;0.90;;
69748;SDS011;57019;52.354;6.584;2022-09-21T13:08:42;4.53;;;0.82;;
69748;SDS011;57019;52.354;6.584;2022-09-21T13:11:10;3.27;;;0.90;;
69748;SDS011;57019;52.354;6.584;2022-09-21T13:13:44;4.30;;;0.80;;
69748;SDS011;57019;52.354;6.584;2022-09-21T13:19:01;3.83;;;0.88;;
69748;SDS011;57019;52.354;6.584;2022-09-21T13:21:29;4.28;;;0.90;;
69748;SDS011;57019;52.354;6.584;2022-09-21T13:23:58;3.43;;;0.80;;
69748;SDS011;57019;52.354;6.584;2022-09-21T13:29:24;4.75;;;0.82;;
69748;SDS011;57019;52.354;6.584;2022-09-21T13:31:55;4.20;;;0.90;;
69748;SDS011;57019;52.354;6.584;2022-09-21T13:39:44;3.80;;;0.80;;
69748;SDS011;57019;52.354;6.584;2022-09-21T13:44:54;3.45;;;0.70;;
69748;SDS011;57019;52.354;6.584;2022-09-21T13:47:34;6.03;;;1.10;;
69748;SDS011;57019;52.354;6.584;2022-09-21T13:55:53;3.50;;;0.80;;
69748;SDS011;57019;52.354;6.584;2022-09-21T14:06:23;4.32;;;0.80;;
69748;SDS011;57019;52.354;6.584;2022-09-21T14:11:37;6.15;;;1.20;;
69748;SDS011;57019;52.354;6.584;2022-09-21T14:27:05;4.43;;;0.90;;
69748;SDS011;57019;52.354;6.584;2022-09-21T14:29:43;7.17;;;1.00;;
69748;SDS011;57019;52.354;6.584;2022-09-21T14:32:22;6.28;;;0.80;;
69748;SDS011;57019;52.354;6.584;2022-09-21T14:34:50;11.25;;;0.88;;
69748;SDS011;57019;52.354;6.584;2022-09-21T14:37:26;8.57;;;0.82;;
69748;SDS011;57019;52.354;6.584;2022-09-21T14:39:56;7.38;;;0.93;;
69748;SDS011;57019;52.354;6.584;2022-09-21T14:42:23;5.87;;;0.83;;
69748;SDS011;57019;52.354;6.584;2022-09-21T14:44:54;6.43;;;1.20;;
69748;SDS011;57019;52.354;6.584;2022-09-21T14:47:29;7.72;;;1.10;;
69748;SDS011;57019;52.354;6.584;2022-09-21T14:50:13;5.57;;;1.10;;
69748;SDS011;57019;52.354;6.584;2022-09-21T15:15:44;13.73;;;3.47;;
69748;SDS011;57019;52.354;6.584;2022-09-21T15:18:21;26.88;;;7.32;;
69748;SDS011;57019;52.354;6.584;2022-09-21T15:20:53;22.38;;;6.40;;
69748;SDS011;57019;52.354;6.584;2022-09-21T15:23:31;22.33;;;6.10;;
69748;SDS011;57019;52.354;6.584;2022-09-21T15:26:03;19.15;;;6.40;;
69748;SDS011;57019;52.354;6.584;2022-09-21T15:28:43;23.13;;;6.45;;
69748;SDS011;57019;52.354;6.584;2022-09-21T15:31:14;20.50;;;5.88;;
69748;SDS011;57019;52.354;6.584;2022-09-21T15:33:41;17.38;;;6.30;;
69748;SDS011;57019;52.354;6.584;2022-09-21T15:36:11;20.20;;;5.63;;
69748;SDS011;57019;52.354;6.584;2022-09-21T15:38:36;16.90;;;5.20;;
69748;SDS011;57019;52.354;6.584;2022-09-21T15:41:03;20.90;;;5.18;;
69748;SDS011;57019;52.354;6.584;2022-09-21T15:43:33;21.60;;;5.50;;
69748;SDS011;57019;52.354;6.584;2022-09-21T15:46:05;15.07;;;4.85;;
69748;SDS011;57019;52.354;6.584;2022-09-21T15:48:39;17.73;;;5.20;;
69748;SDS011;57019;52.354;6.584;2022-09-21T15:51:11;19.33;;;4.55;;
69748;SDS011;57019;52.354;6.584;2022-09-21T15:53:52;21.95;;;4.30;;
69748;SDS011;57019;52.354;6.584;2022-09-21T15:56:30;13.98;;;4.47;;
69748;SDS011;57019;52.354;6.584;2022-09-21T15:58:59;12.90;;;4.00;;
69748;SDS011;57019;52.354;6.584;2022-09-21T16:01:39;13.90;;;4.17;;
69748;SDS011;57019;52.354;6.584;2022-09-21T16:04:11;11.32;;;3.92;;
69748;SDS011;57019;52.354;6.584;2022-09-21T16:06:56;13.65;;;3.95;;
69748;SDS011;57019;52.354;6.584;2022-09-21T16:09:35;13.48;;;3.75;;
69748;SDS011;57019;52.354;6.584;2022-09-21T16:12:03;17.60;;;4.30;;
69748;SDS011;57019;52.354;6.584;2022-09-21T16:14:49;14.03;;;4.07;;
69748;SDS011;57019;52.354;6.584;2022-09-21T16:27:54;15.70;;;3.10;;
69748;SDS011;57019;52.354;6.584;2022-09-21T16:30:38;16.67;;;3.88;;
69748;SDS011;57019;52.354;6.584;2022-09-21T16:39:07;11.50;;;3.67;;
69748;SDS011;57019;52.354;6.584;2022-09-21T16:41:35;10.33;;;3.77;;
69748;SDS011;57019;52.354;6.584;2022-09-21T16:44:04;14.20;;;3.00;;
69748;SDS011;57019;52.354;6.584;2022-09-21T16:46:32;12.82;;;3.60;;
69748;SDS011;57019;52.354;6.584;2022-09-21T16:48:59;10.63;;;3.30;;
69748;SDS011;57019;52.354;6.584;2022-09-21T16:51:24;13.20;;;4.00;;
69748;SDS011;57019;52.354;6.584;2022-09-21T16:53:52;9.73;;;2.80;;
69748;SDS011;57019;52.354;6.584;2022-09-21T16:56:18;12.90;;;3.70;;
69748;SDS011;57019;52.354;6.584;2022-09-21T16:58:44;12.83;;;3.30;;
69748;SDS011;57019;52.354;6.584;2022-09-21T17:01:13;11.27;;;3.00;;
69748;SDS011;57019;52.354;6.584;2022-09-21T17:03:42;13.27;;;3.20;;
69748;SDS011;57019;52.354;6.584;2022-09-21T17:06:18;10.80;;;3.00;;
69748;SDS011;57019;52.354;6.584;2022-09-21T17:08:45;8.23;;;2.70;;
69748;SDS011;57019;52.354;6.584;2022-09-21T17:11:13;13.25;;;3.03;;
69748;SDS011;57019;52.354;6.584;2022-09-21T17:13:44;13.13;;;2.80;;
69748;SDS011;57019;52.354;6.584;2022-09-21T17:16:16;8.13;;;2.83;;
69748;SDS011;57019;52.354;6.584;2022-09-21T17:18:46;10.55;;;2.95;;
69748;SDS011;57019;52.354;6.584;2022-09-21T17:21:13;7.40;;;2.70;;
69748;SDS011;57019;52.354;6.584;2022-09-21T17:23:39;10.45;;;2.92;;
69748;SDS011;57019;52.354;6.584;2022-09-21T17:26:12;11.57;;;2.97;;
69748;SDS011;57019;52.354;6.584;2022-09-21T17:28:45;10.43;;;2.50;;
69748;SDS011;57019;52.354;6.584;2022-09-21T17:31:11;9.65;;;3.00;;
69748;SDS011;57019;52.354;6.584;2022-09-21T17:33:38;11.10;;;2.90;;
69748;SDS011;57019;52.354;6.584;2022-09-21T17:36:03;9.00;;;2.50;;
69748;SDS011;57019;52.354;6.584;2022-09-21T17:38:31;10.55;;;2.60;;
69748;SDS011;57019;52.354;6.584;2022-09-21T17:40:59;9.55;;;2.50;;
69748;SDS011;57019;52.354;6.584;2022-09-21T17:43:39;11.45;;;2.60;;
69748;SDS011;57019;52.354;6.584;2022-09-21T17:46:28;8.48;;;2.33;;
69748;SDS011;57019;52.354;6.584;2022-09-21T17:49:00;9.27;;;2.83;;
69748;SDS011;57019;52.354;6.584;2022-09-21T17:51:26;12.05;;;2.83;;
69748;SDS011;57019;52.354;6.584;2022-09-21T17:54:27;8.55;;;2.47;;
69748;SDS011;57019;52.354;6.584;2022-09-21T17:59:26;8.65;;;2.55;;
69748;SDS011;57019;52.354;6.584;2022-09-21T18:01:55;11.48;;;2.53;;
69748;SDS011;57019;52.354;6.584;2022-09-21T18:04:24;9.38;;;2.30;;
69748;SDS011;57019;52.354;6.584;2022-09-21T18:06:51;8.70;;;2.22;;
69748;SDS011;57019;52.354;6.584;2022-09-21T18:09:18;8.57;;;2.50;;
69748;SDS011;57019;52.354;6.584;2022-09-21T18:17:34;9.23;;;2.22;;
69748;SDS011;57019;52.354;6.584;2022-09-21T18:20:23;10.53;;;2.20;;
69748;SDS011;57019;52.354;6.584;2022-09-21T18:25:34;8.95;;;2.13;;
69748;SDS011;57019;52.354;6.584;2022-09-21T18:28:13;10.20;;;2.20;;
69748;SDS011;57019;52.354;6.584;2022-09-21T18:30:49;9.18;;;1.95;;
69748;SDS011;57019;52.354;6.584;2022-09-21T18:36:17;8.23;;;2.03;;
69748;SDS011;57019;52.354;6.584;2022-09-21T18:39:11;7.82;;;1.80;;
69748;SDS011;57019;52.354;6.584;2022-09-21T18:41:47;9.80;;;1.92;;
69748;SDS011;57019;52.354;6.584;2022-09-21T18:44:37;8.18;;;2.10;;
69748;SDS011;57019;52.354;6.584;2022-09-21T18:54:54;12.63;;;2.38;;
69748;SDS011;57019;52.354;6.584;2022-09-21T18:57:20;7.17;;;2.00;;
69748;SDS011;57019;52.354;6.584;2022-09-21T18:59:45;8.52;;;1.95;;
69748;SDS011;57019;52.354;6.584;2022-09-21T19:02:12;9.63;;;2.27;;
69748;SDS011;57019;52.354;6.584;2022-09-21T19:04:49;10.17;;;2.10;;
69748;SDS011;57019;52.354;6.584;2022-09-21T19:07:17;9.02;;;2.13;;
69748;SDS011;57019;52.354;6.584;2022-09-21T19:09:51;9.65;;;2.25;;